createdAt,value
2018-01-18T00:00:35.186Z,88.81
2018-01-18T00:01:45.013Z,88.81
2018-01-18T00:02:54.817Z,88.81
2018-01-18T00:04:04.621Z,88.72
2018-01-18T00:05:14.727Z,88.81
2018-01-18T00:06:24.257Z,88.81
2018-01-18T00:07:34.301Z,88.91
2018-01-18T00:08:44.338Z,88.72
2018-01-18T00:09:54.128Z,88.72
2018-01-18T00:11:04.181Z,88.72
2018-01-18T00:12:14.226Z,88.81
2018-01-18T00:13:24.316Z,88.76
2018-01-18T00:14:34.355Z,88.43
2018-01-18T00:15:44.453Z,88.76
2018-01-18T00:16:55.196Z,88.67
2018-01-18T00:18:05.258Z,88.76
2018-01-18T00:19:15.353Z,88.57
2018-01-18T00:20:25.401Z,88.67
2018-01-18T00:21:35.170Z,88.76
2018-01-18T00:22:44.984Z,88.76
2018-01-18T00:23:55.091Z,88.39
2018-01-18T00:25:05.135Z,88.57
2018-01-18T00:26:15.226Z,88.76
2018-01-18T00:27:25.280Z,88.57
2018-01-18T00:28:35.320Z,88.76
2018-01-18T00:29:45.360Z,89.05
2018-01-18T00:30:55.206Z,89.05
2018-01-18T00:32:04.988Z,88.76
2018-01-18T00:33:15.043Z,88.57
2018-01-18T00:34:25.089Z,89.05
2018-01-18T00:35:34.867Z,89.14
2018-01-18T00:36:44.921Z,89.05
2018-01-18T00:37:54.972Z,89.14
2018-01-18T00:39:05.027Z,89.14
2018-01-18T00:40:15.070Z,88.95
2018-01-18T00:41:25.117Z,89.05
2018-01-18T00:42:35.202Z,89.05
2018-01-18T00:43:45.008Z,88.86
2018-01-18T00:44:55.054Z,89.43
2018-01-18T00:46:05.092Z,89.43
2018-01-18T00:47:14.877Z,89.14
2018-01-18T00:48:24.704Z,89.33
2018-01-18T00:49:34.745Z,89.43
2018-01-18T00:50:44.786Z,89.24
2018-01-18T00:51:54.839Z,89.43
2018-01-18T00:53:04.872Z,89.62
2018-01-18T00:54:15.025Z,89.43
2018-01-18T00:55:25.066Z,89.33
2018-01-18T00:56:35.117Z,89.43
2018-01-18T00:57:45.158Z,89.33
2018-01-18T00:58:55.214Z,89.24
2018-01-18T01:00:05.305Z,89.33
2018-01-18T01:01:15.363Z,89.33
2018-01-18T01:02:25.134Z,89.43
2018-01-18T01:03:35.181Z,89.33
2018-01-18T01:04:44.453Z,89.43
2018-01-18T01:05:54.305Z,89.33
2018-01-18T01:07:04.417Z,89.62
2018-01-18T01:08:13.964Z,89.47
2018-01-18T01:09:24.009Z,89.38
2018-01-18T01:10:34.053Z,89.38
2018-01-18T01:11:44.144Z,89.28
2018-01-18T01:12:54.195Z,89.38
2018-01-18T01:14:04.247Z,89.67
2018-01-18T01:15:14.281Z,89.38
2018-01-18T01:16:24.329Z,89.67
2018-01-18T01:17:33.850Z,89.38
2018-01-18T01:18:43.907Z,89.38
2018-01-18T01:19:53.982Z,89.28
2018-01-18T01:21:04.018Z,89.47
2018-01-18T01:22:13.814Z,89.47
2018-01-18T01:23:23.871Z,89.38
2018-01-18T01:34:40.518Z,89.47
2018-01-18T01:35:50.036Z,89.38
2018-01-18T01:37:00.079Z,89.47
2018-01-18T01:38:09.878Z,89.38
2018-01-18T01:39:19.969Z,89.38
2018-01-18T01:40:30.019Z,89.28
2018-01-18T01:41:39.806Z,89.28
2018-01-18T01:42:49.592Z,89.38
2018-01-18T01:43:59.628Z,89.28
2018-01-18T01:45:09.726Z,89.86
2018-01-18T01:46:19.769Z,89.47
2018-01-18T01:47:29.820Z,89.38
2018-01-18T01:48:39.885Z,89.81
2018-01-18T01:49:49.944Z,89.67
2018-01-18T01:50:59.996Z,89.28
2018-01-18T01:52:10.041Z,89.57
2018-01-18T01:53:20.084Z,89.53
2018-01-18T01:54:30.156Z,89.62
2018-01-18T01:55:40.201Z,89.14
2018-01-18T01:56:50.006Z,90
2018-01-18T01:58:00.057Z,89.62
2018-01-18T01:59:10.129Z,89.81
2018-01-18T02:00:20.177Z,90
2018-01-18T02:01:30.221Z,90
2018-01-18T02:02:40.259Z,89.9
2018-01-18T02:03:50.295Z,89.81
2018-01-18T02:05:00.355Z,90
2018-01-18T02:06:10.396Z,89.9
2018-01-18T02:07:20.446Z,89.9
2018-01-18T02:08:30.589Z,89.62
2018-01-18T02:09:40.634Z,89.43
2018-01-18T02:10:50.668Z,89.62
2018-01-18T02:12:00.713Z,89.43
2018-01-18T02:13:10.765Z,89.33
2018-01-18T02:14:20.797Z,89.24
2018-01-18T02:15:30.846Z,89.33
2018-01-18T02:16:40.892Z,89.62
2018-01-18T02:17:50.940Z,89.43
2018-01-18T02:19:01.001Z,89.24
2018-01-18T02:20:12.111Z,89.62
2018-01-18T02:21:22.156Z,89.53
2018-01-18T02:22:32.204Z,89.33
2018-01-18T02:23:42.269Z,89.33
2018-01-18T02:24:52.302Z,89.2
2018-01-18T02:26:02.327Z,89.29
2018-01-18T02:27:12.381Z,89.58
2018-01-18T02:28:22.448Z,89.58
2018-01-18T02:29:32.491Z,89.76
2018-01-18T02:30:42.625Z,89.48
2018-01-18T02:31:52.734Z,89.58
2018-01-18T02:33:02.775Z,89.76
2018-01-18T02:34:12.838Z,89.58
2018-01-18T02:35:22.888Z,89.39
2018-01-18T02:36:32.659Z,89.76
2018-01-18T02:37:42.743Z,89.76
2018-01-18T02:38:52.527Z,89.76
2018-01-18T02:40:02.565Z,89.48
2018-01-18T02:41:12.606Z,89.29
2018-01-18T02:42:22.663Z,89.76
2018-01-18T02:43:32.489Z,89.2
2018-01-18T02:44:42.270Z,89.2
2018-01-18T02:45:51.795Z,89.2
2018-01-18T02:47:01.588Z,89.29
2018-01-18T02:48:11.425Z,89.29
2018-01-18T02:49:21.535Z,89.48
2018-01-18T02:50:31.570Z,89.39
2018-01-18T02:51:41.630Z,89.58
2018-01-18T02:52:51.686Z,89
2018-01-18T02:54:01.199Z,89.2
2018-01-18T02:55:11.296Z,89.58
2018-01-18T02:56:21.343Z,89.53
2018-01-18T02:57:31.388Z,89.1
2018-01-18T02:58:41.437Z,89.25
2018-01-18T02:59:51.479Z,89.15
2018-01-18T03:01:01.675Z,89.06
2018-01-18T03:02:11.537Z,88.87
2018-01-18T03:34:31.275Z,85.23
2018-01-18T03:35:41.322Z,85.7
2018-01-18T03:36:51.356Z,86.55
2018-01-18T03:38:01.400Z,87.21
2018-01-18T03:39:11.188Z,88.35
2018-01-18T03:40:21.285Z,88.64
2018-01-18T03:41:31.048Z,89.39
2018-01-18T03:42:41.082Z,89.39
2018-01-18T03:43:51.160Z,89.68
2018-01-18T03:45:01.200Z,89.58
2018-01-18T03:46:11.299Z,90.01
2018-01-18T03:47:21.362Z,90.39
2018-01-18T03:48:31.403Z,89.44
2018-01-18T03:49:41.467Z,89.82
2018-01-18T03:50:51.503Z,89.91
2018-01-18T03:52:01.596Z,89.72
2018-01-18T03:53:11.651Z,89.67
2018-01-18T03:54:21.741Z,89.67
2018-01-18T03:55:31.516Z,89.67
2018-01-18T03:56:41.568Z,89.77
2018-01-18T03:57:51.657Z,89.86
2018-01-18T03:59:01.697Z,89.77
2018-01-18T04:00:11.224Z,89.58
2018-01-18T04:01:21.263Z,89.67
2018-01-18T04:02:31.296Z,89.67
2018-01-18T04:03:41.437Z,89.2
2018-01-18T04:04:51.545Z,89.39
2018-01-18T04:06:01.329Z,89.15
2018-01-18T04:07:11.383Z,89.25
2018-01-18T04:08:21.171Z,89.15
2018-01-18T04:09:30.955Z,89.34
2018-01-18T04:10:41.011Z,89.15
2018-01-18T04:11:51.056Z,89.15
2018-01-18T04:13:01.118Z,88.87
2018-01-18T04:14:11.155Z,88.87
2018-01-18T04:15:21.189Z,88.96
2018-01-18T04:16:31.229Z,88.77
2018-01-18T04:17:41.010Z,88.87
2018-01-18T04:18:51.067Z,89.25
2018-01-18T04:20:00.847Z,89.06
2018-01-18T04:21:10.880Z,89.34
2018-01-18T04:22:20.941Z,89.34
2018-01-18T04:23:30.975Z,89.06
2018-01-18T04:24:40.769Z,89.53
2018-01-18T04:25:50.818Z,89.06
2018-01-18T04:27:00.925Z,89.34
2018-01-18T04:28:10.718Z,89.06
2018-01-18T04:29:20.517Z,89.15
2018-01-18T04:30:30.556Z,89.34
2018-01-18T04:31:40.598Z,89.06
2018-01-18T04:32:50.399Z,89.06
2018-01-18T04:34:00.439Z,89.06
2018-01-18T04:35:10.511Z,89.34
2018-01-18T04:36:20.038Z,89.15
2018-01-18T04:37:30.074Z,89.06
2018-01-18T04:38:40.208Z,89.25
2018-01-18T04:39:50.317Z,89.34
2018-01-18T04:41:00.349Z,89.25
2018-01-18T04:42:10.137Z,89.34
2018-01-18T04:43:20.191Z,89.06
2018-01-18T04:44:30.033Z,89.25
2018-01-18T04:45:40.073Z,89.34
2018-01-18T04:46:50.114Z,89.15
2018-01-18T04:48:00.207Z,89.15
2018-01-18T04:49:10.247Z,89.34
2018-01-18T04:50:20.336Z,89.43
2018-01-18T04:51:30.384Z,89.25
2018-01-18T04:52:40.168Z,89.06
2018-01-18T04:53:50.215Z,89.34
2018-01-18T04:55:00.272Z,89.15
2018-01-18T04:56:10.099Z,89.34
2018-01-18T04:57:20.160Z,89.34
2018-01-18T04:58:30.258Z,89.06
2018-01-18T04:59:40.303Z,89.06
2018-01-18T05:00:50.352Z,89.06
2018-01-18T05:02:00.392Z,89.34
2018-01-18T05:03:10.435Z,88.87
2018-01-18T05:04:20.226Z,88.68
2018-01-18T05:05:30.027Z,89.34
2018-01-18T05:06:40.083Z,88.96
2018-01-18T05:07:50.183Z,88.87
2018-01-18T05:09:00.231Z,89.34
2018-01-18T05:10:10.266Z,89.15
2018-01-18T05:11:20.301Z,89.34
2018-01-18T05:12:30.089Z,89.34
2018-01-18T05:13:40.179Z,89.34
2018-01-18T05:14:50.273Z,89.34
2018-01-18T05:16:00.119Z,89.25
2018-01-18T05:17:09.919Z,89.34
2018-01-18T05:18:19.719Z,89.34
2018-01-18T05:19:29.593Z,89.34
2018-01-18T05:20:39.379Z,89.34
2018-01-18T05:21:49.171Z,89.06
2018-01-18T05:22:59.239Z,89.06
2018-01-18T05:24:09.282Z,89.15
2018-01-18T05:25:19.419Z,89.15
2018-01-18T05:26:29.193Z,89.06
2018-01-18T05:27:38.973Z,89.34
2018-01-18T05:28:49.016Z,89.34
2018-01-18T05:29:58.815Z,89.34
2018-01-18T05:31:08.912Z,89.34
2018-01-18T05:32:18.950Z,89.39
2018-01-18T05:33:29.006Z,89.39
2018-01-18T05:34:38.784Z,89.34
2018-01-18T05:35:48.583Z,89.43
2018-01-18T05:36:58.749Z,89.39
2018-01-18T05:38:08.582Z,89.39
2018-01-18T05:39:18.632Z,89.2
2018-01-18T05:40:28.675Z,89.58
2018-01-18T05:41:38.716Z,89.34
2018-01-18T05:42:48.802Z,89.34
2018-01-18T05:43:58.916Z,89.15
2018-01-18T05:45:08.974Z,89.25
2018-01-18T05:46:19.010Z,89.2
2018-01-18T05:47:29.055Z,89.2
2018-01-18T05:48:39.198Z,89.29
2018-01-18T05:49:48.982Z,89.29
2018-01-18T05:50:59.031Z,89.58
2018-01-18T05:52:08.550Z,89.53
2018-01-18T05:53:18.603Z,89.25
2018-01-18T05:54:28.175Z,89.25
2018-01-18T05:55:38.230Z,89.15
2018-01-18T05:56:48.273Z,89.15
2018-01-18T05:57:58.322Z,89.15
2018-01-18T05:59:08.165Z,89.34
2018-01-18T06:00:18.259Z,89.2
2018-01-18T06:01:27.772Z,89.34
2018-01-18T06:02:37.813Z,89.15
2018-01-18T06:03:47.591Z,89.15
2018-01-18T06:04:57.628Z,89.34
2018-01-18T06:06:07.470Z,89.25
2018-01-18T06:07:17.520Z,89.06
2018-01-18T06:08:27.317Z,89.34
2018-01-18T06:09:37.103Z,89.06
2018-01-18T06:10:47.146Z,89.34
2018-01-18T06:11:56.938Z,89.34
2018-01-18T06:13:06.738Z,89.25
2018-01-18T06:14:16.792Z,89.06
2018-01-18T06:15:26.875Z,89.34
2018-01-18T06:16:36.915Z,89.06
2018-01-18T06:17:46.741Z,89.34
2018-01-18T06:18:56.517Z,89.15
2018-01-18T06:20:06.575Z,89.48
2018-01-18T06:21:16.621Z,89.53
2018-01-18T06:22:26.670Z,89.53
2018-01-18T06:23:36.778Z,89.39
2018-01-18T06:24:46.575Z,89.2
2018-01-18T06:25:56.610Z,89.15
2018-01-18T06:27:06.658Z,89.43
2018-01-18T06:28:16.698Z,89.1
2018-01-18T06:29:26.749Z,89.25
2018-01-18T06:30:36.927Z,89.34
2018-01-18T06:31:46.969Z,88.81
2018-01-18T06:32:57.027Z,88.91
2018-01-18T06:34:06.823Z,88.77
2018-01-18T06:35:16.924Z,88.91
2018-01-18T06:36:26.712Z,88.77
2018-01-18T06:37:36.750Z,89.2
2018-01-18T06:38:46.274Z,89.2
2018-01-18T06:39:55.807Z,89
2018-01-18T06:41:05.614Z,88.91
2018-01-18T06:42:15.675Z,88.91
2018-01-18T06:43:25.728Z,88.91
2018-01-18T06:44:35.504Z,88.91
2018-01-18T06:45:45.314Z,88.91
2018-01-18T06:46:55.362Z,88.91
2018-01-18T06:48:04.874Z,88.81
2018-01-18T06:49:14.929Z,88.91
2018-01-18T06:50:24.974Z,88.81
2018-01-18T06:51:34.498Z,89
2018-01-18T06:52:44.368Z,88.91
2018-01-18T06:53:54.156Z,89.1
2018-01-18T06:55:03.942Z,88.53
2018-01-18T06:56:13.996Z,88.34
2018-01-18T06:57:23.777Z,88.72
2018-01-18T06:58:33.590Z,88.81
2018-01-18T06:59:43.628Z,88.43
2018-01-18T07:00:53.676Z,88.62
2018-01-18T07:02:03.728Z,88.43
2018-01-18T07:03:13.517Z,88.53
2018-01-18T07:04:23.611Z,88.34
2018-01-18T07:05:33.639Z,88.72
2018-01-18T07:06:43.445Z,88.72
2018-01-18T07:07:53.238Z,88.34
2018-01-18T07:09:03.021Z,88.62
2018-01-18T07:10:13.073Z,88.53
2018-01-18T07:11:22.921Z,88.2
2018-01-18T07:12:32.964Z,88.1
2018-01-18T07:13:42.763Z,88.39
2018-01-18T07:14:52.822Z,88.39
2018-01-18T07:16:02.900Z,88.2
2018-01-18T07:17:12.927Z,88.1
2018-01-18T07:18:22.962Z,88.29
2018-01-18T07:19:33.016Z,88.39
2018-01-18T07:20:43.083Z,88.1
2018-01-18T07:21:52.919Z,88.39
2018-01-18T07:23:04.173Z,88.2
2018-01-18T07:24:14.239Z,87.72
2018-01-18T07:25:24.340Z,87.91
2018-01-18T07:26:34.388Z,87.86
2018-01-18T07:27:44.176Z,88.01
2018-01-18T07:28:53.985Z,87.82
2018-01-18T07:30:04.022Z,87.76
2018-01-18T07:31:15.241Z,87.67
2018-01-18T07:32:25.304Z,87.86
2018-01-18T07:33:35.365Z,87.1
2018-01-18T07:34:45.412Z,87.43
2018-01-18T07:35:55.450Z,87.34
2018-01-18T07:37:05.247Z,86.86
2018-01-18T07:38:15.488Z,87.43
2018-01-18T07:39:25.526Z,86.57
2018-01-18T07:40:35.588Z,86.71
2018-01-18T07:41:45.698Z,86.8
2018-01-18T07:42:55.749Z,87.09
2018-01-18T07:44:05.801Z,87.47
2018-01-18T07:45:15.582Z,86.99
2018-01-18T07:46:25.614Z,87.76
2018-01-18T07:47:35.655Z,87.38
2018-01-18T07:48:45.724Z,87.76
2018-01-18T07:49:55.789Z,87.95
2018-01-18T07:51:05.841Z,88.04
2018-01-18T07:52:15.911Z,87.95
2018-01-18T07:53:25.691Z,88.13
2018-01-18T07:54:35.474Z,87.95
2018-01-18T07:55:45.513Z,88.52
2018-01-18T07:56:55.557Z,88.13
2018-01-18T07:58:05.097Z,88.33
2018-01-18T07:59:15.195Z,88.33
2018-01-18T08:00:25.086Z,88.33
2018-01-18T08:01:35.159Z,88.04
2018-01-18T08:02:45.223Z,88.23
2018-01-18T08:03:55.257Z,88.46
2018-01-18T08:05:05.047Z,88.28
2018-01-18T08:06:14.901Z,88.56
2018-01-18T08:07:24.947Z,88.75
2018-01-18T08:08:35.443Z,88.46
2018-01-18T08:09:46.443Z,88.56
2018-01-18T08:10:56.227Z,88.18
2018-01-18T08:12:06.330Z,88.46
2018-01-18T08:13:16.401Z,88.18
2018-01-18T08:14:26.939Z,88.66
2018-01-18T08:15:38.066Z,88.28
2018-01-18T08:16:47.846Z,88.56
2018-01-18T08:17:57.635Z,88.28
2018-01-18T08:19:07.670Z,88.46
2018-01-18T08:20:17.705Z,88.09
2018-01-18T08:21:27.492Z,88.56
2018-01-18T08:22:37.535Z,87.99
2018-01-18T08:23:47.376Z,87.9
2018-01-18T08:24:57.448Z,87.8
2018-01-18T08:26:07.499Z,87.8
2018-01-18T08:27:17.550Z,87.94
2018-01-18T08:28:27.330Z,87.94
2018-01-18T08:29:37.225Z,87.56
2018-01-18T08:30:47.268Z,86.9
2018-01-18T08:31:57.332Z,87.65
2018-01-18T08:33:07.445Z,87.94
2018-01-18T08:34:17.565Z,87.65
2018-01-18T08:35:27.421Z,87.94
2018-01-18T08:36:37.474Z,87.56
2018-01-18T08:37:47.273Z,87.27
2018-01-18T08:38:57.330Z,87.37
2018-01-18T08:40:06.858Z,87.13
2018-01-18T08:41:17.013Z,87.32
2018-01-18T08:42:26.813Z,87.13
2018-01-18T08:43:36.608Z,87.79
2018-01-18T08:44:46.657Z,87.41
2018-01-18T08:45:56.460Z,87.7
2018-01-18T08:47:06.514Z,87.7
2018-01-18T08:48:16.553Z,87.41
2018-01-18T08:49:26.612Z,87.51
2018-01-18T08:50:36.698Z,87.41
2018-01-18T08:51:46.773Z,87.13
2018-01-18T08:52:56.664Z,87.89
2018-01-18T08:54:06.711Z,87.98
2018-01-18T08:55:16.768Z,87.13
2018-01-18T08:56:26.820Z,87.51
2018-01-18T08:57:36.919Z,87.46
2018-01-18T08:58:46.953Z,87.46
2018-01-18T08:59:57.019Z,87.65
2018-01-18T09:01:06.813Z,87.65
2018-01-18T09:02:16.865Z,87.46
2018-01-18T09:03:26.692Z,87.65
2018-01-18T09:04:38.296Z,87.55
2018-01-18T09:05:48.351Z,87.55
2018-01-18T09:06:58.158Z,88.12
2018-01-18T09:08:08.220Z,87.93
2018-01-18T09:09:18.469Z,87.93
2018-01-18T09:10:28.777Z,88.03
2018-01-18T09:11:38.875Z,88.12
2018-01-18T09:12:49.693Z,88.03
2018-01-18T09:14:00.505Z,87.84
2018-01-18T09:15:10.619Z,87.74
2018-01-18T09:16:20.432Z,88.03
2018-01-18T09:17:30.502Z,87.93
2018-01-18T09:18:41.428Z,88.31
2018-01-18T09:19:52.061Z,87.55
2018-01-18T09:21:02.154Z,87.55
2018-01-18T09:22:12.338Z,88.22
2018-01-18T09:23:22.401Z,88.22
2018-01-18T09:24:32.468Z,88.22
2018-01-18T09:25:43.617Z,88.12
2018-01-18T09:26:57.708Z,88.12
2018-01-18T09:28:07.917Z,88.03
2018-01-18T09:29:17.980Z,88.03
2018-01-18T09:30:28.250Z,88.03
2018-01-18T09:31:38.302Z,88.12
2018-01-18T09:32:48.091Z,87.93
2018-01-18T09:33:58.218Z,87.74
2018-01-18T09:35:08.071Z,87.74
2018-01-18T09:36:18.116Z,87.93
2018-01-18T09:37:27.902Z,87.65
2018-01-18T09:38:37.682Z,87.93
2018-01-18T09:39:47.469Z,88.03
2018-01-18T09:40:57.541Z,88.12
2018-01-18T09:42:07.333Z,88.03
2018-01-18T09:43:17.131Z,87.93
2018-01-18T09:44:28.290Z,88.07
2018-01-18T09:45:38.443Z,87.98
2018-01-18T09:46:48.508Z,88.03
2018-01-18T09:47:58.563Z,87.69
2018-01-18T09:49:08.624Z,87.69
2018-01-18T09:50:18.713Z,87.5
2018-01-18T09:51:28.279Z,87.6
2018-01-18T09:52:38.338Z,87.5
2018-01-18T09:53:48.386Z,87.5
2018-01-18T09:54:58.438Z,87.6
2018-01-18T09:56:08.502Z,87.5
2018-01-18T09:57:18.603Z,87.5
2018-01-18T09:58:28.679Z,87.88
2018-01-18T09:59:38.741Z,87.98
2018-01-18T10:00:48.796Z,88.07
2018-01-18T10:01:58.849Z,88.26
2018-01-18T10:03:08.976Z,88.17
2018-01-18T10:04:18.775Z,88.55
2018-01-18T10:05:28.581Z,88.55
2018-01-18T10:06:38.654Z,88.74
2018-01-18T10:07:48.450Z,88.45
2018-01-18T10:08:58.319Z,88.55
2018-01-18T10:10:08.139Z,88.74
2018-01-18T10:11:18.194Z,88.45
2018-01-18T10:12:28.222Z,88.55
2018-01-18T10:13:38.286Z,88.45
2018-01-18T10:14:48.410Z,88.45
2018-01-18T10:15:58.460Z,88.64
2018-01-18T10:17:08.528Z,88.55
2018-01-18T10:18:18.060Z,88.36
2018-01-18T10:19:27.608Z,88.55
2018-01-18T10:20:37.729Z,88.36
2018-01-18T10:21:47.598Z,88.07
2018-01-18T10:22:57.666Z,88.74
2018-01-18T10:24:07.517Z,88.55
2018-01-18T10:25:17.591Z,88.45
2018-01-18T10:26:27.575Z,88.64
2018-01-18T10:27:37.697Z,89.12
2018-01-18T10:28:47.744Z,89.17
2018-01-18T10:29:57.798Z,89.17
2018-01-18T10:31:07.850Z,88.98
2018-01-18T10:32:17.693Z,88.98
2018-01-18T10:33:27.762Z,88.89
2018-01-18T10:34:37.567Z,88.7
2018-01-18T10:35:47.354Z,88.98
2018-01-18T10:36:58.101Z,88.98
2018-01-18T10:38:07.647Z,88.7
2018-01-18T10:39:17.455Z,88.98
2018-01-18T10:40:27.518Z,88.89
2018-01-18T10:41:37.580Z,89.07
2018-01-18T10:42:47.648Z,88.89
2018-01-18T10:43:57.758Z,89.17
2018-01-18T10:45:07.799Z,89.03
2018-01-18T10:46:17.605Z,89.41
2018-01-18T10:47:27.658Z,89.22
2018-01-18T10:48:37.705Z,89.13
2018-01-18T10:49:47.814Z,89.32
2018-01-18T10:50:57.616Z,89.7
2018-01-18T10:52:07.682Z,89.61
2018-01-18T10:53:17.732Z,89.47
2018-01-18T10:54:27.799Z,89.7
2018-01-18T10:55:37.646Z,89.65
2018-01-18T10:56:47.445Z,89.47
2018-01-18T10:57:57.508Z,89.47
2018-01-18T10:59:07.313Z,89.47
2018-01-18T11:00:17.385Z,89.56
2018-01-18T11:01:27.521Z,89.47
2018-01-18T11:02:37.588Z,89.56
2018-01-18T11:03:47.401Z,89.08
2018-01-18T11:04:57.206Z,89.08
2018-01-18T11:06:07.305Z,89.18
2018-01-18T11:07:17.432Z,89.18
2018-01-18T11:08:27.471Z,89.27
2018-01-18T11:09:37.272Z,89.27
2018-01-18T11:10:47.099Z,89.27
2018-01-18T11:11:57.169Z,89.08
2018-01-18T11:13:07.217Z,89.18
2018-01-18T11:14:17.305Z,88.79
2018-01-18T11:15:27.120Z,88.89
2018-01-18T11:16:36.926Z,89.18
2018-01-18T11:17:47.359Z,88.89
2018-01-18T11:18:57.530Z,88.89
2018-01-18T11:20:07.592Z,88.79
2018-01-18T11:21:17.631Z,89.08
2018-01-18T11:22:27.424Z,89.37
2018-01-18T11:23:37.263Z,89.37
2018-01-18T11:24:47.334Z,89.47
2018-01-18T11:25:56.880Z,89.27
2018-01-18T11:27:06.935Z,89.18
2018-01-18T11:28:17.034Z,89.08
2018-01-18T11:29:26.833Z,89.65
2018-01-18T11:30:36.898Z,89.51
2018-01-18T11:31:46.941Z,89.61
2018-01-18T11:32:56.755Z,89.42
2018-01-18T11:34:07.053Z,90.08
2018-01-18T11:35:17.122Z,89.8
2018-01-18T11:36:27.289Z,90.08
2018-01-18T11:37:37.099Z,89.99
2018-01-18T11:38:47.165Z,89.7
2018-01-18T11:39:56.957Z,89.99
2018-01-18T11:41:07.078Z,89.8
2018-01-18T11:42:17.209Z,89.8
2018-01-18T11:43:27.326Z,90.08
2018-01-18T11:44:37.391Z,89.99
2018-01-18T11:45:47.500Z,89.51
2018-01-18T11:46:57.289Z,89.61
2018-01-18T11:48:07.411Z,89.61
2018-01-18T11:49:17.581Z,89.51
2018-01-18T11:50:27.730Z,89.8
2018-01-18T11:51:37.772Z,89.51
2018-01-18T11:52:47.810Z,89.14
2018-01-18T11:53:57.987Z,89.42
2018-01-18T11:55:08.043Z,89
2018-01-18T11:56:18.109Z,89.32
2018-01-18T11:57:28.169Z,88.94
2018-01-18T11:58:37.979Z,88.56
2018-01-18T11:59:47.783Z,88.75
2018-01-18T12:00:57.857Z,88.85
2018-01-18T12:02:07.903Z,89.04
2018-01-18T12:03:17.967Z,88.94
2018-01-18T12:04:27.808Z,88.94
2018-01-18T12:05:37.891Z,88.85
2018-01-18T12:06:47.676Z,88.94
2018-01-18T12:07:58.249Z,89.23
2018-01-18T12:09:07.807Z,89.14
2018-01-18T12:10:17.850Z,89.61
2018-01-18T12:11:28.010Z,89.04
2018-01-18T12:12:37.803Z,89.23
2018-01-18T12:13:47.598Z,89.04
2018-01-18T12:14:57.758Z,89.61
2018-01-18T12:16:08.990Z,89.7
2018-01-18T12:17:19.709Z,89.61
2018-01-18T12:18:29.563Z,89.32
2018-01-18T12:19:39.359Z,89.51
2018-01-18T12:20:49.402Z,89.8
2018-01-18T12:21:59.493Z,89.32
2018-01-18T12:23:09.595Z,89.61
2018-01-18T12:24:19.651Z,89.32
2018-01-18T12:25:29.443Z,89.56
2018-01-18T12:26:39.258Z,89.14
2018-01-18T12:27:49.320Z,89.23
2018-01-18T12:28:59.442Z,89.23
2018-01-18T12:30:09.504Z,89.23
2018-01-18T12:31:19.582Z,89.04
2018-01-18T12:32:29.415Z,89
2018-01-18T12:33:39.505Z,89.23
2018-01-18T12:34:49.686Z,89.04
2018-01-18T12:35:59.782Z,89.14
2018-01-18T12:37:09.844Z,89.14
2018-01-18T12:38:19.920Z,89.14
2018-01-18T12:39:29.985Z,89.14
2018-01-18T12:40:40.097Z,89.14
2018-01-18T12:41:50.149Z,89.23
2018-01-18T12:43:00.212Z,89.04
2018-01-18T12:44:10.262Z,89.14
2018-01-18T12:45:20.303Z,89.14
2018-01-18T12:46:30.462Z,88.75
2018-01-18T12:47:40.023Z,88.94
2018-01-18T12:48:49.828Z,88.46
2018-01-18T12:50:00.009Z,88.94
2018-01-18T12:51:11.067Z,88.85
2018-01-18T12:52:21.178Z,88.85
2018-01-18T12:53:31.249Z,88.28
2018-01-18T12:54:41.061Z,88.51
2018-01-18T12:55:51.107Z,88.42
2018-01-18T12:57:01.174Z,88.6
2018-01-18T12:58:11.360Z,88.13
2018-01-18T12:59:21.469Z,87.75
2018-01-18T13:00:30.743Z,88.13
2018-01-18T13:01:40.808Z,87.98
2018-01-18T13:02:50.855Z,87.98
2018-01-18T13:04:00.712Z,87.94
2018-01-18T13:05:10.779Z,88.37
2018-01-18T13:06:20.855Z,88.04
2018-01-18T13:07:30.687Z,88.18
2018-01-18T13:08:40.749Z,88.99
2018-01-18T13:09:50.853Z,88.99
2018-01-18T13:11:00.948Z,88.79
2018-01-18T13:12:11.014Z,89.27
2018-01-18T13:13:20.813Z,89.47
2018-01-18T13:14:30.882Z,89.56
2018-01-18T13:15:41.011Z,89.56
2018-01-18T13:16:51.081Z,89.47
2018-01-18T13:18:01.141Z,89.27
2018-01-18T13:19:10.928Z,89.27
2018-01-18T13:20:20.981Z,89.18
2018-01-18T13:21:31.384Z,89.18
2018-01-18T13:22:42.354Z,89.18
2018-01-18T13:23:52.498Z,89.65
2018-01-18T13:25:02.567Z,88.99
2018-01-18T13:26:12.629Z,88.99
2018-01-18T13:27:22.430Z,89.18
2018-01-18T13:28:32.481Z,88.99
2018-01-18T13:29:42.305Z,88.79
2018-01-18T13:30:52.366Z,89.18
2018-01-18T13:32:02.453Z,88.79
2018-01-18T13:33:12.595Z,88.6
2018-01-18T13:34:22.654Z,88.6
2018-01-18T13:35:32.718Z,88.89
2018-01-18T13:36:42.793Z,88.99
2018-01-18T13:37:52.854Z,88.99
2018-01-18T13:39:03.058Z,88.79
2018-01-18T13:40:13.095Z,88.79
2018-01-18T13:41:23.402Z,89.27
2018-01-18T13:42:33.486Z,89.37
2018-01-18T13:43:44.199Z,89.18
2018-01-18T13:44:54.309Z,89.56
2018-01-18T13:46:04.365Z,89.32
2018-01-18T13:47:14.194Z,89.32
2018-01-18T13:48:24.026Z,89.32
2018-01-18T13:49:34.100Z,89.65
2018-01-18T13:50:44.577Z,89.32
2018-01-18T13:51:54.691Z,89.61
2018-01-18T13:53:04.756Z,89.42
2018-01-18T13:54:14.801Z,88.94
2018-01-18T13:55:24.900Z,89.14
2018-01-18T13:56:34.990Z,89.23
2018-01-18T13:57:44.774Z,89.23
2018-01-18T13:58:54.841Z,89.61
2018-01-18T14:00:04.938Z,89.14
2018-01-18T14:01:14.996Z,89.23
2018-01-18T14:02:24.805Z,89.04
2018-01-18T14:03:34.857Z,89.23
2018-01-18T14:04:44.703Z,89.23
2018-01-18T14:05:54.765Z,89.23
2018-01-18T14:07:04.829Z,89.42
2018-01-18T14:08:14.892Z,89.23
2018-01-18T14:09:25.327Z,89.23
2018-01-18T14:10:35.456Z,89.23
2018-01-18T14:11:45.510Z,89.04
2018-01-18T14:12:55.573Z,89.14
2018-01-18T14:14:05.625Z,89.14
2018-01-18T14:15:15.667Z,89.42
2018-01-18T14:16:25.557Z,89.42
2018-01-18T14:17:35.625Z,89.51
2018-01-18T14:18:45.734Z,89.61
2018-01-18T14:19:55.811Z,89.51
2018-01-18T14:21:05.890Z,89.61
2018-01-18T14:22:15.996Z,89.51
2018-01-18T14:23:27.053Z,89.61
2018-01-18T14:24:37.711Z,89.61
2018-01-18T14:25:47.779Z,89.42
2018-01-18T14:26:57.620Z,89.14
2018-01-18T14:28:07.740Z,89.04
2018-01-18T14:29:17.795Z,89.32
2018-01-18T14:30:27.859Z,89.42
2018-01-18T14:31:37.935Z,89.23
2018-01-18T14:32:48.007Z,89.04
2018-01-18T14:33:57.892Z,89.61
2018-01-18T14:35:07.952Z,89.42
2018-01-18T14:36:18.012Z,89.32
2018-01-18T14:37:28.088Z,89.61
2018-01-18T14:38:38.153Z,89.42
2018-01-18T14:39:48.279Z,89.51
2018-01-18T14:40:58.130Z,89.8
2018-01-18T14:42:08.232Z,89.51
2018-01-18T14:43:18.042Z,89.61
2018-01-18T14:44:28.102Z,89.51
2018-01-18T14:45:37.953Z,89.51
2018-01-18T14:46:47.787Z,89.42
2018-01-18T14:47:57.654Z,89.51
2018-01-18T14:49:07.719Z,89.42
2018-01-18T14:50:17.520Z,89.42
2018-01-18T14:51:27.653Z,89.8
2018-01-18T14:52:37.734Z,89.42
2018-01-18T14:53:47.561Z,89.23
2018-01-18T14:54:57.369Z,89.23
2018-01-18T14:56:07.459Z,89.14
2018-01-18T14:57:17.555Z,89.32
2018-01-18T14:58:27.622Z,89.04
2018-01-18T14:59:37.675Z,89.23
2018-01-18T15:00:47.753Z,89.61
2018-01-18T15:01:57.816Z,89.32
2018-01-18T15:03:07.980Z,89.61
2018-01-18T15:04:17.781Z,89.51
2018-01-18T15:05:27.839Z,89.51
2018-01-18T15:06:37.918Z,89.51
2018-01-18T15:07:47.998Z,89.51
2018-01-18T15:08:58.062Z,89.42
2018-01-18T15:10:08.113Z,89.8
2018-01-18T15:11:18.167Z,89.8
2018-01-18T15:12:28.245Z,90.18
2018-01-18T15:13:38.293Z,89.89
2018-01-18T15:14:48.452Z,89.99
2018-01-18T15:15:58.528Z,89.99
2018-01-18T15:17:08.574Z,90.08
2018-01-18T15:18:18.371Z,89.8
2018-01-18T15:19:28.446Z,90.18
2018-01-18T15:20:38.502Z,89.94
2018-01-18T15:21:48.559Z,89.75
2018-01-18T15:22:58.627Z,89.85
2018-01-18T15:24:08.702Z,89.99
2018-01-18T15:25:18.492Z,90.08
2018-01-18T15:26:28.594Z,90.08
2018-01-18T15:27:38.648Z,89.99
2018-01-18T15:28:48.715Z,89.61
2018-01-18T15:29:58.764Z,89.7
2018-01-18T15:31:08.557Z,89.8
2018-01-18T15:32:18.620Z,89.8
2018-01-18T15:33:28.690Z,89.8
2018-01-18T15:34:38.270Z,89.8
2018-01-18T15:35:48.062Z,89.61
2018-01-18T15:36:58.132Z,90.18
2018-01-18T15:38:08.266Z,89.89
2018-01-18T15:39:18.347Z,90.28
2018-01-18T15:40:28.164Z,90.37
2018-01-18T15:41:38.253Z,89.99
2018-01-18T15:42:48.386Z,89.89
2018-01-18T15:43:58.383Z,90.28
2018-01-18T15:45:08.454Z,89.8
2018-01-18T15:46:18.275Z,89.94